sensor_id;sensor_type;location;lat;lon;timestamp;temperature;humidity
46754;DHT22;32500;50.620;3.400;2022-12-11T00:00:01;12.50;62.00
46754;DHT22;32500;50.620;3.400;2022-12-11T00:02:28;12.50;62.00
46754;DHT22;32500;50.620;3.400;2022-12-11T00:04:53;12.50;61.70
46754;DHT22;32500;50.620;3.400;2022-12-11T00:07:19;12.50;62.00
46754;DHT22;32500;50.620;3.400;2022-12-11T00:09:45;12.50;61.80
46754;DHT22;32500;50.620;3.400;2022-12-11T00:12:10;12.50;61.80
46754;DHT22;32500;50.620;3.400;2022-12-11T00:14:36;12.50;61.80
46754;DHT22;32500;50.620;3.400;2022-12-11T00:17:02;12.40;61.80
46754;DHT22;32500;50.620;3.400;2022-12-11T00:19:28;12.40;61.80
46754;DHT22;32500;50.620;3.400;2022-12-11T00:21:53;12.40;61.90
46754;DHT22;32500;50.620;3.400;2022-12-11T00:24:19;12.40;61.70
46754;DHT22;32500;50.620;3.400;2022-12-11T00:26:44;12.40;61.90
46754;DHT22;32500;50.620;3.400;2022-12-11T00:29:11;12.40;61.80
46754;DHT22;32500;50.620;3.400;2022-12-11T00:31:40;12.40;61.90
46754;DHT22;32500;50.620;3.400;2022-12-11T00:34:07;12.50;61.90
46754;DHT22;32500;50.620;3.400;2022-12-11T00:36:32;12.50;61.80
46754;DHT22;32500;50.620;3.400;2022-12-11T00:39:00;12.40;61.80
46754;DHT22;32500;50.620;3.400;2022-12-11T00:41:26;12.50;61.80
46754;DHT22;32500;50.620;3.400;2022-12-11T00:43:52;12.40;61.60
46754;DHT22;32500;50.620;3.400;2022-12-11T00:46:17;12.40;61.70
46754;DHT22;32500;50.620;3.400;2022-12-11T00:48:43;12.40;61.70
46754;DHT22;32500;50.620;3.400;2022-12-11T00:51:10;12.40;61.60
46754;DHT22;32500;50.620;3.400;2022-12-11T00:53:37;12.40;61.80
46754;DHT22;32500;50.620;3.400;2022-12-11T00:56:17;12.40;61.80
46754;DHT22;32500;50.620;3.400;2022-12-11T00:58:44;12.40;61.60
46754;DHT22;32500;50.620;3.400;2022-12-11T01:01:14;12.40;61.80
46754;DHT22;32500;50.620;3.400;2022-12-11T01:03:40;12.40;61.90
46754;DHT22;32500;50.620;3.400;2022-12-11T01:06:06;12.40;61.80
46754;DHT22;32500;50.620;3.400;2022-12-11T01:08:32;12.40;61.80
46754;DHT22;32500;50.620;3.400;2022-12-11T01:11:03;12.40;61.80
46754;DHT22;32500;50.620;3.400;2022-12-11T01:13:30;12.40;61.70
46754;DHT22;32500;50.620;3.400;2022-12-11T01:15:55;12.40;61.60
46754;DHT22;32500;50.620;3.400;2022-12-11T01:18:21;12.30;61.60
46754;DHT22;32500;50.620;3.400;2022-12-11T01:20:47;12.30;61.80
46754;DHT22;32500;50.620;3.400;2022-12-11T01:23:13;12.40;61.70
46754;DHT22;32500;50.620;3.400;2022-12-11T01:25:39;12.40;61.70
46754;DHT22;32500;50.620;3.400;2022-12-11T01:28:05;12.30;61.80
46754;DHT22;32500;50.620;3.400;2022-12-11T01:30:31;12.40;61.70
46754;DHT22;32500;50.620;3.400;2022-12-11T01:32:57;12.40;61.60
46754;DHT22;32500;50.620;3.400;2022-12-11T01:35:23;12.40;61.60
46754;DHT22;32500;50.620;3.400;2022-12-11T01:37:48;12.40;61.50
46754;DHT22;32500;50.620;3.400;2022-12-11T01:40:17;12.40;61.50
46754;DHT22;32500;50.620;3.400;2022-12-11T01:42:43;12.40;61.60
46754;DHT22;32500;50.620;3.400;2022-12-11T01:47:51;12.30;61.60
46754;DHT22;32500;50.620;3.400;2022-12-11T01:50:18;12.30;61.50
46754;DHT22;32500;50.620;3.400;2022-12-11T01:52:45;12.40;61.50
46754;DHT22;32500;50.620;3.400;2022-12-11T01:55:12;12.40;61.50
46754;DHT22;32500;50.620;3.400;2022-12-11T01:57:41;12.30;61.50
46754;DHT22;32500;50.620;3.400;2022-12-11T02:00:08;12.30;61.50
46754;DHT22;32500;50.620;3.400;2022-12-11T02:02:34;12.30;61.50
46754;DHT22;32500;50.620;3.400;2022-12-11T02:05:05;12.30;61.40
46754;DHT22;32500;50.620;3.400;2022-12-11T02:07:39;12.30;61.40
46754;DHT22;32500;50.620;3.400;2022-12-11T02:10:07;12.30;61.50
46754;DHT22;32500;50.620;3.400;2022-12-11T02:19:17;12.30;61.60
46754;DHT22;32500;50.620;3.400;2022-12-11T02:21:31;12.30;61.60
46754;DHT22;32500;50.620;3.400;2022-12-11T02:29:55;12.30;61.70
46754;DHT22;32500;50.620;3.400;2022-12-11T02:32:42;12.30;61.50
46754;DHT22;32500;50.620;3.400;2022-12-11T02:35:21;12.30;61.50
46754;DHT22;32500;50.620;3.400;2022-12-11T02:37:58;12.30;61.50
46754;DHT22;32500;50.620;3.400;2022-12-11T02:40:29;12.30;61.50
46754;DHT22;32500;50.620;3.400;2022-12-11T02:42:57;12.30;61.50
46754;DHT22;32500;50.620;3.400;2022-12-11T02:45:25;12.30;61.50
46754;DHT22;32500;50.620;3.400;2022-12-11T02:47:51;12.20;61.50
46754;DHT22;32500;50.620;3.400;2022-12-11T02:50:20;12.20;61.40
46754;DHT22;32500;50.620;3.400;2022-12-11T02:52:50;12.30;61.50
46754;DHT22;32500;50.620;3.400;2022-12-11T02:55:17;12.20;61.50
46754;DHT22;32500;50.620;3.400;2022-12-11T02:57:56;12.20;61.50
46754;DHT22;32500;50.620;3.400;2022-12-11T03:00:24;12.30;61.50
46754;DHT22;32500;50.620;3.400;2022-12-11T03:02:49;12.20;61.40
46754;DHT22;32500;50.620;3.400;2022-12-11T03:05:15;12.20;61.40
46754;DHT22;32500;50.620;3.400;2022-12-11T03:07:43;12.20;61.40
46754;DHT22;32500;50.620;3.400;2022-12-11T03:10:11;12.20;61.50
46754;DHT22;32500;50.620;3.400;2022-12-11T03:12:42;12.20;61.40
46754;DHT22;32500;50.620;3.400;2022-12-11T03:15:11;12.20;61.40
46754;DHT22;32500;50.620;3.400;2022-12-11T03:20:49;12.20;61.30
46754;DHT22;32500;50.620;3.400;2022-12-11T03:23:32;12.20;61.50
46754;DHT22;32500;50.620;3.400;2022-12-11T03:26:05;12.20;61.50
46754;DHT22;32500;50.620;3.400;2022-12-11T03:28:43;12.20;61.60
46754;DHT22;32500;50.620;3.400;2022-12-11T03:31:13;12.20;61.50
46754;DHT22;32500;50.620;3.400;2022-12-11T03:33:43;12.20;61.40
46754;DHT22;32500;50.620;3.400;2022-12-11T03:36:46;12.20;61.20
46754;DHT22;32500;50.620;3.400;2022-12-11T03:39:29;12.20;61.40
46754;DHT22;32500;50.620;3.400;2022-12-11T03:41:54;12.20;61.40
46754;DHT22;32500;50.620;3.400;2022-12-11T03:44:21;12.20;61.40
46754;DHT22;32500;50.620;3.400;2022-12-11T03:46:48;12.20;61.50
46754;DHT22;32500;50.620;3.400;2022-12-11T03:49:22;12.10;61.50
46754;DHT22;32500;50.620;3.400;2022-12-11T03:51:50;12.10;61.40
46754;DHT22;32500;50.620;3.400;2022-12-11T03:54:17;12.10;61.40
46754;DHT22;32500;50.620;3.400;2022-12-11T03:56:44;12.20;61.50
46754;DHT22;32500;50.620;3.400;2022-12-11T03:59:11;12.20;61.50
46754;DHT22;32500;50.620;3.400;2022-12-11T04:01:37;12.10;61.30
46754;DHT22;32500;50.620;3.400;2022-12-11T04:04:03;12.10;61.50
46754;DHT22;32500;50.620;3.400;2022-12-11T04:06:28;12.10;61.40
46754;DHT22;32500;50.620;3.400;2022-12-11T04:08:54;12.10;61.40
46754;DHT22;32500;50.620;3.400;2022-12-11T04:11:20;12.10;61.40
46754;DHT22;32500;50.620;3.400;2022-12-11T04:14:06;12.10;61.30
46754;DHT22;32500;50.620;3.400;2022-12-11T04:16:50;12.10;61.40
46754;DHT22;32500;50.620;3.400;2022-12-11T04:19:17;12.20;61.40
46754;DHT22;32500;50.620;3.400;2022-12-11T04:22:01;12.20;61.40
46754;DHT22;32500;50.620;3.400;2022-12-11T04:24:49;12.10;61.30
46754;DHT22;32500;50.620;3.400;2022-12-11T04:27:16;12.10;61.40
46754;DHT22;32500;50.620;3.400;2022-12-11T04:30:01;12.10;61.40
46754;DHT22;32500;50.620;3.400;2022-12-11T04:32:27;12.10;61.50
46754;DHT22;32500;50.620;3.400;2022-12-11T04:34:52;12.20;61.40
46754;DHT22;32500;50.620;3.400;2022-12-11T04:37:18;12.10;61.40
46754;DHT22;32500;50.620;3.400;2022-12-11T04:39:43;12.10;61.40
46754;DHT22;32500;50.620;3.400;2022-12-11T04:42:09;12.10;61.50
46754;DHT22;32500;50.620;3.400;2022-12-11T04:44:35;12.10;61.40
46754;DHT22;32500;50.620;3.400;2022-12-11T04:47:00;12.10;61.40
46754;DHT22;32500;50.620;3.400;2022-12-11T04:49:26;12.10;61.40
46754;DHT22;32500;50.620;3.400;2022-12-11T04:51:52;12.10;61.50
46754;DHT22;32500;50.620;3.400;2022-12-11T04:54:17;12.10;61.40
46754;DHT22;32500;50.620;3.400;2022-12-11T04:56:43;12.10;61.30
46754;DHT22;32500;50.620;3.400;2022-12-11T04:59:08;12.00;61.10
46754;DHT22;32500;50.620;3.400;2022-12-11T05:01:34;12.00;61.20
46754;DHT22;32500;50.620;3.400;2022-12-11T05:04:00;11.90;61.10
46754;DHT22;32500;50.620;3.400;2022-12-11T05:06:25;11.90;61.40
46754;DHT22;32500;50.620;3.400;2022-12-11T05:08:51;11.90;61.80
46754;DHT22;32500;50.620;3.400;2022-12-11T05:11:16;11.90;61.90
46754;DHT22;32500;50.620;3.400;2022-12-11T05:13:43;11.80;62.30
46754;DHT22;32500;50.620;3.400;2022-12-11T05:16:11;11.80;62.40
46754;DHT22;32500;50.620;3.400;2022-12-11T05:18:37;11.80;62.40
46754;DHT22;32500;50.620;3.400;2022-12-11T05:21:11;11.90;62.50
46754;DHT22;32500;50.620;3.400;2022-12-11T05:23:37;11.90;62.60
46754;DHT22;32500;50.620;3.400;2022-12-11T05:26:10;12.00;62.40
46754;DHT22;32500;50.620;3.400;2022-12-11T05:28:37;12.00;62.30
46754;DHT22;32500;50.620;3.400;2022-12-11T05:31:09;12.10;62.40
46754;DHT22;32500;50.620;3.400;2022-12-11T05:33:36;12.20;62.10
46754;DHT22;32500;50.620;3.400;2022-12-11T05:36:02;12.20;61.90
46754;DHT22;32500;50.620;3.400;2022-12-11T05:38:28;12.30;61.70
46754;DHT22;32500;50.620;3.400;2022-12-11T05:41:04;12.30;61.60
46754;DHT22;32500;50.620;3.400;2022-12-11T05:43:32;12.40;61.50
46754;DHT22;32500;50.620;3.400;2022-12-11T05:46:11;12.50;61.30
46754;DHT22;32500;50.620;3.400;2022-12-11T05:48:38;12.40;61.30
46754;DHT22;32500;50.620;3.400;2022-12-11T05:51:04;12.50;61.10
46754;DHT22;32500;50.620;3.400;2022-12-11T05:53:32;12.50;61.20
46754;DHT22;32500;50.620;3.400;2022-12-11T05:56:43;12.50;61.10
46754;DHT22;32500;50.620;3.400;2022-12-11T05:58:52;12.60;61.30
46754;DHT22;32500;50.620;3.400;2022-12-11T06:01:23;12.70;61.00
46754;DHT22;32500;50.620;3.400;2022-12-11T06:03:49;12.70;61.00
46754;DHT22;32500;50.620;3.400;2022-12-11T06:06:15;12.80;60.80
46754;DHT22;32500;50.620;3.400;2022-12-11T06:08:41;12.90;60.40
46754;DHT22;32500;50.620;3.400;2022-12-11T06:11:07;12.90;60.20
46754;DHT22;32500;50.620;3.400;2022-12-11T06:13:34;12.90;60.20
46754;DHT22;32500;50.620;3.400;2022-12-11T06:16:04;12.90;60.10
46754;DHT22;32500;50.620;3.400;2022-12-11T06:18:31;12.90;60.10
46754;DHT22;32500;50.620;3.400;2022-12-11T06:20:59;13.00;60.10
46754;DHT22;32500;50.620;3.400;2022-12-11T06:23:25;13.00;60.10
46754;DHT22;32500;50.620;3.400;2022-12-11T06:25:50;13.00;60.00
46754;DHT22;32500;50.620;3.400;2022-12-11T06:28:16;13.00;59.90
46754;DHT22;32500;50.620;3.400;2022-12-11T06:30:42;13.00;60.00
46754;DHT22;32500;50.620;3.400;2022-12-11T06:33:07;13.00;59.80
46754;DHT22;32500;50.620;3.400;2022-12-11T06:35:33;13.00;59.90
46754;DHT22;32500;50.620;3.400;2022-12-11T06:37:58;13.00;59.80
46754;DHT22;32500;50.620;3.400;2022-12-11T06:40:24;13.00;60.00
46754;DHT22;32500;50.620;3.400;2022-12-11T06:42:50;13.00;60.00
46754;DHT22;32500;50.620;3.400;2022-12-11T06:45:15;13.00;60.00
46754;DHT22;32500;50.620;3.400;2022-12-11T06:47:41;13.00;59.70
46754;DHT22;32500;50.620;3.400;2022-12-11T06:50:07;13.00;59.80
46754;DHT22;32500;50.620;3.400;2022-12-11T06:52:33;13.00;60.00
46754;DHT22;32500;50.620;3.400;2022-12-11T06:54:59;13.00;60.00
46754;DHT22;32500;50.620;3.400;2022-12-11T06:57:25;13.00;60.20
46754;DHT22;32500;50.620;3.400;2022-12-11T06:59:50;13.10;60.00
46754;DHT22;32500;50.620;3.400;2022-12-11T07:02:17;13.20;59.80
46754;DHT22;32500;50.620;3.400;2022-12-11T07:04:44;13.30;59.60
46754;DHT22;32500;50.620;3.400;2022-12-11T07:07:10;13.40;59.30
46754;DHT22;32500;50.620;3.400;2022-12-11T07:09:38;13.40;59.30
46754;DHT22;32500;50.620;3.400;2022-12-11T07:12:04;13.40;59.00
46754;DHT22;32500;50.620;3.400;2022-12-11T07:14:31;13.40;59.10
46754;DHT22;32500;50.620;3.400;2022-12-11T07:16:57;13.50;59.00
46754;DHT22;32500;50.620;3.400;2022-12-11T07:19:23;13.50;59.10
46754;DHT22;32500;50.620;3.400;2022-12-11T07:21:49;13.50;59.10
46754;DHT22;32500;50.620;3.400;2022-12-11T07:24:14;13.50;59.00
46754;DHT22;32500;50.620;3.400;2022-12-11T07:26:41;13.40;59.00
46754;DHT22;32500;50.620;3.400;2022-12-11T07:29:06;13.40;59.10
46754;DHT22;32500;50.620;3.400;2022-12-11T07:31:32;13.40;59.10
46754;DHT22;32500;50.620;3.400;2022-12-11T07:34:01;13.40;59.10
46754;DHT22;32500;50.620;3.400;2022-12-11T07:36:28;13.50;59.20
46754;DHT22;32500;50.620;3.400;2022-12-11T07:38:54;13.50;59.10
46754;DHT22;32500;50.620;3.400;2022-12-11T07:41:20;13.50;59.10
46754;DHT22;32500;50.620;3.400;2022-12-11T07:43:46;13.50;58.90
46754;DHT22;32500;50.620;3.400;2022-12-11T07:46:18;13.50;58.80
46754;DHT22;32500;50.620;3.400;2022-12-11T07:48:45;13.60;58.80
46754;DHT22;32500;50.620;3.400;2022-12-11T07:51:20;13.60;58.80
46754;DHT22;32500;50.620;3.400;2022-12-11T07:53:48;13.50;58.70
46754;DHT22;32500;50.620;3.400;2022-12-11T07:56:15;13.60;58.90
46754;DHT22;32500;50.620;3.400;2022-12-11T07:58:42;13.60;58.90
46754;DHT22;32500;50.620;3.400;2022-12-11T08:01:15;13.50;58.60
46754;DHT22;32500;50.620;3.400;2022-12-11T08:03:41;13.50;58.70
46754;DHT22;32500;50.620;3.400;2022-12-11T08:06:07;13.40;58.70
46754;DHT22;32500;50.620;3.400;2022-12-11T08:08:33;13.50;58.90
46754;DHT22;32500;50.620;3.400;2022-12-11T08:11:03;13.50;59.50
46754;DHT22;32500;50.620;3.400;2022-12-11T08:13:29;13.60;58.60
46754;DHT22;32500;50.620;3.400;2022-12-11T08:15:55;13.60;58.50
46754;DHT22;32500;50.620;3.400;2022-12-11T08:18:21;13.70;58.50
46754;DHT22;32500;50.620;3.400;2022-12-11T08:20:46;13.70;58.30
46754;DHT22;32500;50.620;3.400;2022-12-11T08:23:12;13.70;58.20
46754;DHT22;32500;50.620;3.400;2022-12-11T08:25:38;13.80;58.10
46754;DHT22;32500;50.620;3.400;2022-12-11T08:28:04;13.80;58.30
46754;DHT22;32500;50.620;3.400;2022-12-11T08:30:30;13.80;58.00
46754;DHT22;32500;50.620;3.400;2022-12-11T08:32:56;13.80;58.10
46754;DHT22;32500;50.620;3.400;2022-12-11T08:35:22;13.80;57.90
46754;DHT22;32500;50.620;3.400;2022-12-11T08:37:47;13.80;57.80
46754;DHT22;32500;50.620;3.400;2022-12-11T08:40:13;13.90;57.80
46754;DHT22;32500;50.620;3.400;2022-12-11T08:42:39;13.90;57.80
46754;DHT22;32500;50.620;3.400;2022-12-11T08:45:05;13.90;57.90
46754;DHT22;32500;50.620;3.400;2022-12-11T08:47:31;13.80;57.80
46754;DHT22;32500;50.620;3.400;2022-12-11T08:49:56;13.90;57.80
46754;DHT22;32500;50.620;3.400;2022-12-11T08:52:22;13.80;57.90
46754;DHT22;32500;50.620;3.400;2022-12-11T08:54:48;13.80;57.90
46754;DHT22;32500;50.620;3.400;2022-12-11T08:57:14;13.80;57.70
46754;DHT22;32500;50.620;3.400;2022-12-11T08:59:39;13.80;58.00
46754;DHT22;32500;50.620;3.400;2022-12-11T09:02:05;13.80;58.20
46754;DHT22;32500;50.620;3.400;2022-12-11T09:04:31;13.90;58.30
46754;DHT22;32500;50.620;3.400;2022-12-11T09:06:57;13.90;58.10
46754;DHT22;32500;50.620;3.400;2022-12-11T09:09:23;14.00;58.10
46754;DHT22;32500;50.620;3.400;2022-12-11T09:11:48;14.10;58.00
46754;DHT22;32500;50.620;3.400;2022-12-11T09:14:14;14.10;57.90
46754;DHT22;32500;50.620;3.400;2022-12-11T09:16:40;14.20;58.30
46754;DHT22;32500;50.620;3.400;2022-12-11T09:19:07;14.20;57.80
46754;DHT22;32500;50.620;3.400;2022-12-11T09:21:33;14.20;57.70
46754;DHT22;32500;50.620;3.400;2022-12-11T09:24:00;14.20;57.80
46754;DHT22;32500;50.620;3.400;2022-12-11T09:26:27;14.30;57.70
46754;DHT22;32500;50.620;3.400;2022-12-11T09:28:54;14.30;57.70
46754;DHT22;32500;50.620;3.400;2022-12-11T09:31:25;14.30;57.60
46754;DHT22;32500;50.620;3.400;2022-12-11T09:33:54;14.20;58.00
46754;DHT22;32500;50.620;3.400;2022-12-11T09:36:20;14.20;58.30
46754;DHT22;32500;50.620;3.400;2022-12-11T09:38:47;14.30;58.30
46754;DHT22;32500;50.620;3.400;2022-12-11T09:46:16;14.30;58.20
46754;DHT22;32500;50.620;3.400;2022-12-11T09:48:44;14.20;58.20
46754;DHT22;32500;50.620;3.400;2022-12-11T09:53:43;14.20;58.20
46754;DHT22;32500;50.620;3.400;2022-12-11T09:56:22;14.20;58.50
46754;DHT22;32500;50.620;3.400;2022-12-11T09:58:56;14.40;58.00
46754;DHT22;32500;50.620;3.400;2022-12-11T10:04:35;14.70;57.30
46754;DHT22;32500;50.620;3.400;2022-12-11T10:07:18;14.80;56.80
46754;DHT22;32500;50.620;3.400;2022-12-11T10:10:41;14.90;56.90
46754;DHT22;32500;50.620;3.400;2022-12-11T10:19:01;15.10;56.50
46754;DHT22;32500;50.620;3.400;2022-12-11T10:21:35;15.10;56.40
46754;DHT22;32500;50.620;3.400;2022-12-11T10:24:04;15.00;56.60
46754;DHT22;32500;50.620;3.400;2022-12-11T10:26:38;15.00;56.40
46754;DHT22;32500;50.620;3.400;2022-12-11T10:29:08;15.10;57.00
46754;DHT22;32500;50.620;3.400;2022-12-11T10:31:37;15.10;56.60
46754;DHT22;32500;50.620;3.400;2022-12-11T10:34:16;15.10;56.30
46754;DHT22;32500;50.620;3.400;2022-12-11T10:36:45;15.10;56.50
46754;DHT22;32500;50.620;3.400;2022-12-11T10:39:21;15.10;56.50
46754;DHT22;32500;50.620;3.400;2022-12-11T10:41:49;15.20;56.20
46754;DHT22;32500;50.620;3.400;2022-12-11T10:44:24;15.20;56.20
46754;DHT22;32500;50.620;3.400;2022-12-11T10:47:11;15.20;56.10
46754;DHT22;32500;50.620;3.400;2022-12-11T10:49:41;15.20;55.90
46754;DHT22;32500;50.620;3.400;2022-12-11T10:52:22;15.10;55.90
46754;DHT22;32500;50.620;3.400;2022-12-11T10:54:58;15.20;55.90
46754;DHT22;32500;50.620;3.400;2022-12-11T10:57:35;15.20;55.90
46754;DHT22;32500;50.620;3.400;2022-12-11T11:00:05;15.10;55.90
46754;DHT22;32500;50.620;3.400;2022-12-11T11:02:35;15.10;55.80
46754;DHT22;32500;50.620;3.400;2022-12-11T11:05:15;15.00;56.30
46754;DHT22;32500;50.620;3.400;2022-12-11T11:07:41;15.00;56.20
46754;DHT22;32500;50.620;3.400;2022-12-11T11:12:42;14.90;56.30
46754;DHT22;32500;50.620;3.400;2022-12-11T11:15:19;14.90;56.20
46754;DHT22;32500;50.620;3.400;2022-12-11T11:17:52;14.90;56.00
46754;DHT22;32500;50.620;3.400;2022-12-11T11:20:21;14.90;55.80
46754;DHT22;32500;50.620;3.400;2022-12-11T11:22:50;15.00;55.70
46754;DHT22;32500;50.620;3.400;2022-12-11T11:25:21;15.00;55.50
46754;DHT22;32500;50.620;3.400;2022-12-11T11:28:07;15.00;55.60
46754;DHT22;32500;50.620;3.400;2022-12-11T11:30:40;15.00;55.50
46754;DHT22;32500;50.620;3.400;2022-12-11T11:33:16;15.00;55.50
46754;DHT22;32500;50.620;3.400;2022-12-11T11:35:56;15.00;55.80
46754;DHT22;32500;50.620;3.400;2022-12-11T11:38:36;15.10;56.60
46754;DHT22;32500;50.620;3.400;2022-12-11T11:46:05;15.00;56.20
46754;DHT22;32500;50.620;3.400;2022-12-11T11:51:44;15.00;55.90
46754;DHT22;32500;50.620;3.400;2022-12-11T11:56:56;15.00;56.10
46754;DHT22;32500;50.620;3.400;2022-12-11T11:59:32;15.00;56.40
46754;DHT22;32500;50.620;3.400;2022-12-11T12:01:59;14.90;56.70
46754;DHT22;32500;50.620;3.400;2022-12-11T12:04:31;14.90;57.30
46754;DHT22;32500;50.620;3.400;2022-12-11T12:07:09;14.90;57.80
46754;DHT22;32500;50.620;3.400;2022-12-11T12:17:33;15.00;58.90
46754;DHT22;32500;50.620;3.400;2022-12-11T12:25:53;15.30;59.60
46754;DHT22;32500;50.620;3.400;2022-12-11T12:28:26;15.40;59.80
46754;DHT22;32500;50.620;3.400;2022-12-11T12:31:13;15.50;59.70
46754;DHT22;32500;50.620;3.400;2022-12-11T12:33:52;15.60;60.00
46754;DHT22;32500;50.620;3.400;2022-12-11T12:44:20;15.60;59.60
46754;DHT22;32500;50.620;3.400;2022-12-11T12:46:59;15.60;59.80
46754;DHT22;32500;50.620;3.400;2022-12-11T12:49:40;15.80;59.80
46754;DHT22;32500;50.620;3.400;2022-12-11T12:52:15;15.80;59.60
46754;DHT22;32500;50.620;3.400;2022-12-11T12:54:45;15.80;59.50
46754;DHT22;32500;50.620;3.400;2022-12-11T12:57:32;15.90;60.10
46754;DHT22;32500;50.620;3.400;2022-12-11T12:59:58;15.90;59.10
46754;DHT22;32500;50.620;3.400;2022-12-11T13:02:24;15.90;59.40
46754;DHT22;32500;50.620;3.400;2022-12-11T13:05:05;16.00;59.30
46754;DHT22;32500;50.620;3.400;2022-12-11T13:07:32;16.00;59.20
46754;DHT22;32500;50.620;3.400;2022-12-11T13:10:23;16.10;59.10
46754;DHT22;32500;50.620;3.400;2022-12-11T13:12:49;16.10;59.20
46754;DHT22;32500;50.620;3.400;2022-12-11T13:15:36;16.10;59.00
46754;DHT22;32500;50.620;3.400;2022-12-11T13:18:32;16.00;59.10
46754;DHT22;32500;50.620;3.400;2022-12-11T13:20:58;16.00;59.30
46754;DHT22;32500;50.620;3.400;2022-12-11T13:23:34;16.00;59.00
46754;DHT22;32500;50.620;3.400;2022-12-11T13:26:02;16.10;58.90
46754;DHT22;32500;50.620;3.400;2022-12-11T13:28:33;16.10;58.80
46754;DHT22;32500;50.620;3.400;2022-12-11T13:33:45;16.10;59.00
46754;DHT22;32500;50.620;3.400;2022-12-11T13:38:43;16.10;58.70
46754;DHT22;32500;50.620;3.400;2022-12-11T13:41:11;16.20;58.70
46754;DHT22;32500;50.620;3.400;2022-12-11T13:43:38;16.10;58.70
46754;DHT22;32500;50.620;3.400;2022-12-11T13:46:08;16.20;58.90
46754;DHT22;32500;50.620;3.400;2022-12-11T13:48:50;16.10;58.80
46754;DHT22;32500;50.620;3.400;2022-12-11T13:51:24;16.10;58.60
46754;DHT22;32500;50.620;3.400;2022-12-11T13:54:13;15.90;58.40
46754;DHT22;32500;50.620;3.400;2022-12-11T13:56:40;15.80;58.90
46754;DHT22;32500;50.620;3.400;2022-12-11T14:02:35;15.80;58.70
46754;DHT22;32500;50.620;3.400;2022-12-11T14:05:08;15.80;58.60
46754;DHT22;32500;50.620;3.400;2022-12-11T14:07:46;15.70;58.20
46754;DHT22;32500;50.620;3.400;2022-12-11T14:15:24;15.50;58.30
46754;DHT22;32500;50.620;3.400;2022-12-11T14:17:51;15.60;58.30
46754;DHT22;32500;50.620;3.400;2022-12-11T14:20:31;15.60;57.90
46754;DHT22;32500;50.620;3.400;2022-12-11T14:23:28;15.60;58.20
46754;DHT22;32500;50.620;3.400;2022-12-11T14:26:15;15.70;57.90
46754;DHT22;32500;50.620;3.400;2022-12-11T14:28:41;15.80;57.80
46754;DHT22;32500;50.620;3.400;2022-12-11T14:31:08;15.80;57.50
46754;DHT22;32500;50.620;3.400;2022-12-11T14:33:40;15.90;57.60
46754;DHT22;32500;50.620;3.400;2022-12-11T14:36:07;16.00;57.40
46754;DHT22;32500;50.620;3.400;2022-12-11T14:38:41;16.00;57.20
46754;DHT22;32500;50.620;3.400;2022-12-11T14:41:16;16.00;57.30
46754;DHT22;32500;50.620;3.400;2022-12-11T14:43:47;16.00;57.20
46754;DHT22;32500;50.620;3.400;2022-12-11T14:46:24;16.00;57.20
46754;DHT22;32500;50.620;3.400;2022-12-11T14:49:05;16.00;57.10
46754;DHT22;32500;50.620;3.400;2022-12-11T14:51:35;16.00;57.00
46754;DHT22;32500;50.620;3.400;2022-12-11T14:54:03;16.00;56.90
46754;DHT22;32500;50.620;3.400;2022-12-11T14:56:30;16.00;56.70
46754;DHT22;32500;50.620;3.400;2022-12-11T14:59:14;16.00;56.70
46754;DHT22;32500;50.620;3.400;2022-12-11T15:01:43;16.00;56.80
46754;DHT22;32500;50.620;3.400;2022-12-11T15:06:46;16.10;56.70
46754;DHT22;32500;50.620;3.400;2022-12-11T15:09:33;16.10;56.60
46754;DHT22;32500;50.620;3.400;2022-12-11T15:12:17;16.10;56.70
46754;DHT22;32500;50.620;3.400;2022-12-11T15:15:04;16.20;56.60
46754;DHT22;32500;50.620;3.400;2022-12-11T15:17:31;16.20;56.30
46754;DHT22;32500;50.620;3.400;2022-12-11T15:20:10;16.20;56.30
46754;DHT22;32500;50.620;3.400;2022-12-11T15:22:45;16.10;56.40
46754;DHT22;32500;50.620;3.400;2022-12-11T15:25:25;16.10;56.70
46754;DHT22;32500;50.620;3.400;2022-12-11T15:27:54;16.20;57.70
46754;DHT22;32500;50.620;3.400;2022-12-11T15:35:37;16.20;57.30
46754;DHT22;32500;50.620;3.400;2022-12-11T15:38:03;16.30;57.30
46754;DHT22;32500;50.620;3.400;2022-12-11T15:40:29;16.30;58.30
46754;DHT22;32500;50.620;3.400;2022-12-11T15:42:55;16.30;59.40
46754;DHT22;32500;50.620;3.400;2022-12-11T15:45:24;16.20;58.70
46754;DHT22;32500;50.620;3.400;2022-12-11T15:47:51;16.30;59.10
46754;DHT22;32500;50.620;3.400;2022-12-11T15:50:22;16.30;60.20
46754;DHT22;32500;50.620;3.400;2022-12-11T15:52:50;16.30;60.00
46754;DHT22;32500;50.620;3.400;2022-12-11T15:55:17;16.30;60.50
46754;DHT22;32500;50.620;3.400;2022-12-11T15:57:47;16.30;61.50
46754;DHT22;32500;50.620;3.400;2022-12-11T16:00:15;16.30;61.40
46754;DHT22;32500;50.620;3.400;2022-12-11T16:02:41;16.30;61.50
46754;DHT22;32500;50.620;3.400;2022-12-11T16:05:07;16.30;61.60
46754;DHT22;32500;50.620;3.400;2022-12-11T16:07:33;16.30;61.50
46754;DHT22;32500;50.620;3.400;2022-12-11T16:09:59;16.40;61.60
46754;DHT22;32500;50.620;3.400;2022-12-11T16:12:25;16.30;61.80
46754;DHT22;32500;50.620;3.400;2022-12-11T16:14:51;16.20;61.70
46754;DHT22;32500;50.620;3.400;2022-12-11T16:17:16;16.10;61.40
46754;DHT22;32500;50.620;3.400;2022-12-11T16:19:43;16.00;63.20
46754;DHT22;32500;50.620;3.400;2022-12-11T16:22:10;16.00;64.90
46754;DHT22;32500;50.620;3.400;2022-12-11T16:24:37;16.00;65.60
46754;DHT22;32500;50.620;3.400;2022-12-11T16:27:04;16.10;64.50
46754;DHT22;32500;50.620;3.400;2022-12-11T16:29:37;16.00;65.10
46754;DHT22;32500;50.620;3.400;2022-12-11T16:32:04;16.00;65.40
46754;DHT22;32500;50.620;3.400;2022-12-11T16:34:33;16.00;65.50
46754;DHT22;32500;50.620;3.400;2022-12-11T16:36:59;16.00;66.00
46754;DHT22;32500;50.620;3.400;2022-12-11T16:39:25;15.90;66.40
46754;DHT22;32500;50.620;3.400;2022-12-11T16:41:51;16.00;67.00
46754;DHT22;32500;50.620;3.400;2022-12-11T16:44:18;16.00;66.60
46754;DHT22;32500;50.620;3.400;2022-12-11T16:46:45;16.00;66.90
46754;DHT22;32500;50.620;3.400;2022-12-11T16:49:10;16.00;67.60
46754;DHT22;32500;50.620;3.400;2022-12-11T16:51:36;15.90;66.10
46754;DHT22;32500;50.620;3.400;2022-12-11T16:54:02;15.90;66.40
46754;DHT22;32500;50.620;3.400;2022-12-11T16:56:28;15.90;66.90
46754;DHT22;32500;50.620;3.400;2022-12-11T16:58:54;15.80;65.60
46754;DHT22;32500;50.620;3.400;2022-12-11T17:01:20;15.90;67.00
46754;DHT22;32500;50.620;3.400;2022-12-11T17:03:46;16.00;66.60
46754;DHT22;32500;50.620;3.400;2022-12-11T17:06:14;16.00;66.40
46754;DHT22;32500;50.620;3.400;2022-12-11T17:08:40;16.00;67.40
46754;DHT22;32500;50.620;3.400;2022-12-11T17:11:09;16.00;66.00
46754;DHT22;32500;50.620;3.400;2022-12-11T17:13:35;16.00;66.50
46754;DHT22;32500;50.620;3.400;2022-12-11T17:16:09;16.00;68.20